Time;durP1;ratioP1;P1;durP2;ratioP2;P2;SDS_P1;SDS_P2;PMS_P1;PMS_P2;Temp;Humidity;BMP_temperature;BMP_pressure;BME280_temperature;BME280_humidity;BME280_pressure;Samples;Min_cycle;Max_cycle;Signal;HPM_P1;HPM_P2
2021/05/07 00:01:52;;;;;;;0.80;0.70;;;15.30;54.10;;;;;;4995066;28;20022;-64
2021/05/07 00:04:19;;;;;;;2.15;0.50;;;15.20;54.10;;;;;;4994651;28;20046;-64
2021/05/07 00:06:46;;;;;;;0.88;0.70;;;15.30;54.10;;;;;;4994757;28;20030;-64
2021/05/07 00:09:11;;;;;;;1.95;0.85;;;15.30;54.10;;;;;;4977197;28;20026;-65
2021/05/07 00:11:37;;;;;;;0.60;0.60;;;15.40;54.10;;;;;;4994477;28;20100;-65
2021/05/07 00:14:03;;;;;;;1.33;0.68;;;15.10;54.00;;;;;;4994546;28;20105;-64
2021/05/07 00:16:29;;;;;;;0.93;0.60;;;15.30;54.10;;;;;;4977110;28;20050;-64
2021/05/07 00:18:55;;;;;;;0.70;0.50;;;15.30;54.20;;;;;;4994441;28;20547;-64
2021/05/07 00:21:20;;;;;;;0.68;0.60;;;15.30;54.10;;;;;;4994344;28;20105;-64
2021/05/07 00:23:46;;;;;;;0.98;0.60;;;15.30;54.10;;;;;;4993087;28;20125;-65
2021/05/07 00:26:12;;;;;;;0.63;0.43;;;15.30;54.20;;;;;;4994242;28;20027;-64
2021/05/07 00:28:37;;;;;;;0.77;0.60;;;15.10;54.00;;;;;;4994240;28;20030;-64
2021/05/07 00:31:04;;;;;;;1.20;0.47;;;15.30;54.20;;;;;;4994110;28;20030;-65
2021/05/07 00:33:29;;;;;;;0.88;0.60;;;15.30;54.20;;;;;;4994156;28;20042;-65
2021/05/07 00:35:55;;;;;;;1.17;0.50;;;15.10;54.10;;;;;;4994335;28;20030;-64
2021/05/07 00:38:21;;;;;;;0.60;0.60;;;15.10;54.10;;;;;;4994054;28;20034;-64
2021/05/07 00:40:46;;;;;;;0.45;0.30;;;15.10;54.10;;;;;;4976638;28;20027;-65
2021/05/07 00:43:12;;;;;;;1.38;0.63;;;15.30;54.20;;;;;;4992643;28;20022;-64
2021/05/07 00:45:37;;;;;;;1.38;0.80;;;15.20;54.20;;;;;;4994261;28;20121;-65
2021/05/07 00:48:09;;;;;;;1.35;0.60;;;15.00;54.00;;;;;;4976567;28;20057;-65
2021/05/07 00:50:37;;;;;;;1.15;0.57;;;15.20;54.10;;;;;;4976268;28;20041;-64
2021/05/07 00:53:03;;;;;;;0.82;0.40;;;15.30;54.30;;;;;;4976080;28;20572;-65
2021/05/07 00:55:31;;;;;;;1.65;0.60;;;15.20;54.20;;;;;;4976405;28;20054;-64
2021/05/07 00:57:58;;;;;;;1.48;0.52;;;15.20;54.20;;;;;;4992650;28;20482;-65
2021/05/07 01:00:25;;;;;;;1.00;0.50;;;15.40;54.30;;;;;;4993080;28;20028;-65
2021/05/07 01:02:51;;;;;;;1.08;0.77;;;15.00;54.10;;;;;;4993296;28;20077;-64
2021/05/07 01:05:17;;;;;;;0.63;0.50;;;15.20;54.20;;;;;;4993590;28;20054;-64
2021/05/07 01:07:43;;;;;;;2.15;0.60;;;15.20;54.20;;;;;;4993713;28;20030;-65
2021/05/07 01:10:11;;;;;;;0.68;0.50;;;15.00;54.10;;;;;;4993487;28;20536;-65
2021/05/07 01:12:38;;;;;;;0.70;0.60;;;15.20;54.30;;;;;;4993314;28;20042;-64
2021/05/07 01:15:23;;;;;;;0.77;0.40;;;15.00;54.10;;;;;;4993440;28;20045;-65
2021/05/07 01:17:57;;;;;;;0.98;0.52;;;15.10;54.20;;;;;;4993384;28;20092;-65
2021/05/07 01:20:27;;;;;;;0.50;0.50;;;15.10;54.10;;;;;;4975983;28;20049;-65
2021/05/07 01:22:55;;;;;;;1.02;0.50;;;15.10;54.10;;;;;;4975909;28;20022;-65
2021/05/07 01:25:23;;;;;;;0.93;0.63;;;15.10;81.20;;;;;;4993510;28;20407;-64
2021/05/07 01:27:52;;;;;;;1.05;0.70;;;15.10;54.30;;;;;;4993584;28;20093;-64
2021/05/07 01:30:33;;;;;;;0.50;0.40;;;15.30;54.40;;;;;;4975917;28;20018;-64
2021/05/07 01:32:59;;;;;;;0.40;0.40;;;15.10;54.20;;;;;;4993251;28;20181;-65
2021/05/07 01:35:30;;;;;;;1.35;0.40;;;15.20;81.10;;;;;;4991971;28;20113;-65
2021/05/07 01:38:10;;;;;;;1.48;0.52;;;15.00;54.30;;;;;;4993136;28;20034;-64
2021/05/07 01:40:37;;;;;;;1.50;0.75;;;15.10;54.20;;;;;;4975679;28;20113;-64
2021/05/07 01:43:03;;;;;;;0.80;0.65;;;15.40;54.50;;;;;;4975651;28;20022;-64
2021/05/07 01:45:31;;;;;;;0.52;0.50;;;14.90;54.20;;;;;;4993138;28;20105;-64
2021/05/07 01:47:57;;;;;;;2.03;1.25;;;15.00;54.30;;;;;;4993285;28;20057;-64
2021/05/07 01:50:27;;;;;;;0.50;0.50;;;15.10;54.30;;;;;;4993365;28;20054;-64
2021/05/07 01:52:57;;;;;;;;;;;15.00;54.20;;;;;;4993761;28;20031;-64
2021/05/07 01:55:51;;;;;;;0.60;0.50;;;15.10;54.40;;;;;;4993086;28;19913;-64
2021/05/07 01:58:18;;;;;;;0.70;0.63;;;15.10;54.40;;;;;;4967316;28;20041;-64
2021/05/07 02:00:44;;;;;;;1.05;0.38;;;14.90;54.30;;;;;;4993276;28;20440;-64
2021/05/07 02:03:11;;;;;;;1.08;0.80;;;14.90;54.30;;;;;;4975284;28;20126;-64
2021/05/07 02:05:37;;;;;;;0.50;0.40;;;14.90;54.30;;;;;;4992873;28;20034;-64
2021/05/07 02:08:04;;;;;;;0.50;0.50;;;15.10;54.40;;;;;;4992875;28;20015;-65
2021/05/07 02:10:32;;;;;;;0.47;0.40;;;15.00;54.40;;;;;;4994155;28;20030;-66
2021/05/07 02:13:00;;;;;;;1.48;0.70;;;14.80;54.30;;;;;;4979243;28;20117;-64
2021/05/07 02:15:26;;;;;;;0.70;0.65;;;14.90;54.40;;;;;;4997038;28;20018;-64
2021/05/07 02:17:53;;;;;;;0.63;0.52;;;14.80;54.30;;;;;;4996758;28;20045;-64
2021/05/07 02:20:21;;;;;;;1.05;0.65;;;14.90;54.40;;;;;;4979217;28;20038;-64
2021/05/07 02:22:48;;;;;;;0.70;0.50;;;15.00;54.40;;;;;;4996540;28;20061;-64
2021/05/07 02:25:15;;;;;;;1.17;0.50;;;15.50;54.70;;;;;;4996493;28;20018;-65
2021/05/07 02:27:41;;;;;;;0.65;0.50;;;14.80;54.30;;;;;;4979160;28;20025;-64
2021/05/07 02:30:09;;;;;;;0.50;0.50;;;14.80;54.40;;;;;;4996638;28;20105;-65
2021/05/07 02:32:35;;;;;;;1.25;0.70;;;15.00;54.40;;;;;;4995464;28;20034;-64
2021/05/07 02:35:01;;;;;;;1.10;0.68;;;15.10;54.50;;;;;;4996428;28;20073;-64
2021/05/07 02:37:26;;;;;;;0.93;0.60;;;14.90;54.50;;;;;;4996255;28;20069;-64
2021/05/07 02:39:52;;;;;;;1.05;0.50;;;;;;;;;;4978852;28;20045;-65
2021/05/07 02:42:19;;;;;;;0.80;0.55;;;14.90;53.90;;;;;;4996576;28;20023;-65
2021/05/07 02:44:44;;;;;;;0.65;0.55;;;14.70;55.00;;;;;;4996226;28;20097;-64
2021/05/07 02:47:10;;;;;;;0.80;0.60;;;14.80;54.50;;;;;;4996168;28;20061;-64
2021/05/07 02:49:36;;;;;;;0.65;0.40;;;14.80;54.50;;;;;;4996139;28;20038;-64
2021/05/07 02:52:03;;;;;;;0.68;0.60;;;14.70;54.40;;;;;;4978462;28;20023;-64
2021/05/07 02:54:32;;;;;;;0.55;0.50;;;14.90;54.60;;;;;;4978582;28;20042;-64
2021/05/07 02:56:59;;;;;;;1.25;0.57;;;14.70;54.50;;;;;;4995775;28;20038;-64
2021/05/07 02:59:25;;;;;;;1.00;0.65;;;14.70;54.50;;;;;;4996128;28;20407;-64
2021/05/07 03:01:51;;;;;;;1.38;0.80;;;14.70;54.50;;;;;;4995824;28;20031;-64
2021/05/07 03:04:20;;;;;;;0.85;0.47;;;14.90;54.70;;;;;;4978418;28;20043;-64
2021/05/07 03:06:46;;;;;;;0.60;0.60;;;14.90;54.60;;;;;;4995831;28;20026;-64
2021/05/07 03:09:12;;;;;;;0.52;0.50;;;14.90;54.60;;;;;;4995769;28;20488;-65
2021/05/07 03:11:38;;;;;;;0.93;0.70;;;14.70;54.50;;;;;;4995763;28;20120;-65
2021/05/07 03:14:05;;;;;;;0.65;0.50;;;14.90;54.60;;;;;;4995657;28;20141;-65
2021/05/07 03:16:30;;;;;;;0.75;0.68;;;15.60;55.00;;;;;;4995973;28;20057;-65
2021/05/07 03:18:56;;;;;;;0.50;0.50;;;14.80;54.60;;;;;;4995679;28;20089;-65
2021/05/07 03:21:22;;;;;;;0.80;0.40;;;14.70;54.50;;;;;;4995676;28;20045;-64
2021/05/07 03:23:48;;;;;;;1.80;0.57;;;14.80;54.50;;;;;;4995057;28;20510;-65
2021/05/07 03:26:13;;;;;;;0.70;0.50;;;15.30;54.90;;;;;;4994278;28;20018;-65
2021/05/07 03:28:39;;;;;;;1.48;0.40;;;14.80;54.50;;;;;;4995579;28;20037;-65
2021/05/07 03:31:06;;;;;;;0.70;0.38;;;14.70;54.50;;;;;;4995516;28;20025;-65
2021/05/07 03:33:32;;;;;;;0.65;0.45;;;14.60;54.40;;;;;;4995441;28;20058;-65
2021/05/07 03:35:58;;;;;;;0.40;0.35;;;14.70;54.50;;;;;;4995415;28;20022;-65
2021/05/07 03:38:23;;;;;;;1.52;0.60;;;14.60;54.40;;;;;;4995227;28;20030;-64
2021/05/07 03:40:49;;;;;;;0.77;0.57;;;14.60;54.40;;;;;;4995282;28;20025;-65
2021/05/07 03:43:14;;;;;;;0.70;0.45;;;14.90;54.60;;;;;;4995566;28;20080;-65
2021/05/07 03:45:40;;;;;;;0.75;0.43;;;14.60;54.40;;;;;;4994147;28;20531;-65
2021/05/07 03:48:15;;;;;;;0.50;0.43;;;14.70;54.50;;;;;;4995181;28;20034;-65
2021/05/07 03:50:41;;;;;;;0.30;0.30;;;14.70;54.50;;;;;;4995180;28;20101;-65
2021/05/07 03:53:12;;;;;;;1.15;0.47;;;15.00;54.60;;;;;;4977785;28;20502;-65
2021/05/07 03:55:39;;;;;;;0.57;0.40;;;14.60;54.50;;;;;;4995155;28;20390;-65
2021/05/07 03:58:05;;;;;;;0.60;0.40;;;14.60;54.50;;;;;;4977554;28;20022;-64
2021/05/07 04:00:30;;;;;;;0.75;0.50;;;14.50;54.40;;;;;;4994938;28;20030;-65
2021/05/07 04:02:56;;;;;;;0.40;0.32;;;14.70;54.50;;;;;;4994730;28;20391;-65
2021/05/07 04:05:22;;;;;;;0.65;0.40;;;14.60;54.50;;;;;;4995127;28;20058;-65
2021/05/07 04:07:55;;;;;;;0.63;0.40;;;14.50;54.50;;;;;;4995070;28;20494;-65
2021/05/07 04:10:21;;;;;;;0.57;0.40;;;14.50;54.50;;;;;;4994732;28;20018;-64
2021/05/07 04:15:13;;;;;;;0.75;0.30;;;14.60;54.50;;;;;;4994872;28;20488;-65
2021/05/07 04:17:39;;;;;;;0.70;0.45;;;14.70;54.60;;;;;;4994840;28;20038;-64
2021/05/07 04:20:07;;;;;;;0.82;0.40;;;15.20;54.80;;;;;;4977120;28;20021;-65
2021/05/07 04:22:33;;;;;;;0.22;0.22;;;14.70;81.60;;;;;;4994485;28;20034;-65
2021/05/07 04:24:58;;;;;;;0.68;0.40;;;14.50;54.50;;;;;;4994700;28;20023;-65
2021/05/07 04:27:24;;;;;;;0.55;0.47;;;14.50;54.50;;;;;;4994346;28;20034;-65
2021/05/07 04:29:51;;;;;;;1.00;0.30;;;14.60;54.50;;;;;;4976864;28;20023;-65
2021/05/07 04:32:16;;;;;;;0.60;0.45;;;14.60;54.50;;;;;;4994344;28;20038;-65
2021/05/07 04:34:42;;;;;;;0.65;0.30;;;14.50;54.40;;;;;;4976836;28;20109;-64
2021/05/07 04:37:07;;;;;;;0.22;0.22;;;14.50;54.40;;;;;;4976808;28;20081;-65
2021/05/07 04:39:33;;;;;;;0.43;0.40;;;14.50;54.60;;;;;;4994293;28;20033;-65
2021/05/07 04:41:59;;;;;;;0.65;0.57;;;14.60;54.50;;;;;;4993327;28;20015;-65
2021/05/07 04:44:24;;;;;;;0.28;0.28;;;14.50;54.40;;;;;;4992963;28;20419;-65
2021/05/07 04:46:50;;;;;;;0.40;0.30;;;14.40;54.40;;;;;;4994219;28;20037;-65
2021/05/07 04:49:16;;;;;;;0.50;0.40;;;14.60;54.40;;;;;;4992873;28;20029;-65
2021/05/07 04:51:41;;;;;;;0.30;0.28;;;14.50;54.50;;;;;;4993902;28;20493;-65
2021/05/07 04:54:07;;;;;;;0.32;0.32;;;14.50;81.50;;;;;;4993809;28;20093;-64
2021/05/07 04:56:33;;;;;;;4.13;0.25;;;14.60;54.50;;;;;;4976313;28;20046;-64
2021/05/07 04:58:58;;;;;;;0.93;0.30;;;14.50;54.40;;;;;;4976229;28;20117;-65
2021/05/07 05:01:24;;;;;;;1.13;0.30;;;14.60;54.50;;;;;;4993656;28;20027;-64
2021/05/07 05:03:49;;;;;;;0.60;0.30;;;14.50;54.50;;;;;;4993622;28;20089;-65
2021/05/07 05:06:16;;;;;;;0.57;0.32;;;14.60;81.50;;;;;;4993917;28;20072;-65
2021/05/07 05:08:42;;;;;;;0.85;0.30;;;14.60;54.50;;;;;;4976125;28;20019;-65
2021/05/07 05:11:07;;;;;;;0.40;0.40;;;14.50;54.50;;;;;;4993495;28;20423;-64
2021/05/07 05:13:33;;;;;;;0.70;0.52;;;15.00;54.70;;;;;;4993455;28;20045;-64
2021/05/07 05:15:59;;;;;;;0.50;0.50;;;14.50;54.50;;;;;;4993714;28;20026;-65
2021/05/07 05:18:28;;;;;;;0.28;0.28;;;14.40;54.70;;;;;;4975999;28;20633;-65
2021/05/07 05:20:56;;;;;;;1.23;0.30;;;14.40;54.50;;;;;;4993433;28;20053;-65
2021/05/07 05:23:22;;;;;;;1.25;0.30;;;14.50;54.50;;;;;;4993368;28;20105;-65
2021/05/07 05:25:48;;;;;;;1.25;0.30;;;14.50;54.80;;;;;;4993317;28;20097;-65
2021/05/07 05:28:14;;;;;;;1.35;0.40;;;14.50;55.00;;;;;;4993541;28;20030;-65
2021/05/07 05:30:39;;;;;;;1.55;0.50;;;14.60;55.10;;;;;;4993178;28;20022;-65
2021/05/07 05:33:05;;;;;;;1.00;0.30;;;15.10;55.10;;;;;;4993115;28;20117;-65
2021/05/07 05:35:30;;;;;;;0.50;0.30;;;15.80;55.00;;;;;;4993103;28;20479;-65
2021/05/07 05:37:56;;;;;;;0.95;0.40;;;15.50;81.50;;;;;;4993036;28;20030;-65
2021/05/07 05:40:22;;;;;;;1.00;0.35;;;15.60;53.70;;;;;;4993133;28;20073;-64
2021/05/07 05:42:47;;;;;;;1.23;0.10;;;15.90;53.20;;;;;;4975682;28;20495;-64
2021/05/07 05:45:14;;;;;;;2.05;0.32;;;16.00;52.60;;;;;;4992713;28;20019;-64
2021/05/07 05:47:39;;;;;;;0.20;0.20;;;16.30;52.30;;;;;;4991870;28;20030;-65
2021/05/07 05:50:05;;;;;;;0.55;0.30;;;16.30;51.90;;;;;;4975607;28;20557;-65
2021/05/07 05:52:31;;;;;;;2.92;0.30;;;16.70;51.70;;;;;;4993011;28;20132;-65
2021/05/07 05:54:56;;;;;;;0.73;0.20;;;16.90;51.50;;;;;;4993069;28;20113;-65
2021/05/07 05:57:22;;;;;;;2.83;0.30;;;16.80;51.80;;;;;;4993188;28;20041;-65
2021/05/07 05:59:49;;;;;;;1.77;0.40;;;17.00;50.80;;;;;;4993122;28;20023;-66
2021/05/07 06:02:16;;;;;;;1.20;0.40;;;17.10;50.60;;;;;;4992160;28;20109;-65
2021/05/07 06:04:41;;;;;;;1.95;0.20;;;17.30;50.30;;;;;;4975561;28;20065;-65
2021/05/07 06:07:07;;;;;;;1.23;0.20;;;18.30;50.50;;;;;;4993337;28;20030;-65
2021/05/07 06:09:33;;;;;;;0.50;0.22;;;18.50;50.20;;;;;;4975964;28;20037;-65
2021/05/07 06:11:58;;;;;;;0.30;0.30;;;17.70;49.50;;;;;;4993104;28;20111;-65
2021/05/07 06:14:24;;;;;;;0.30;0.30;;;18.00;49.60;;;;;;4992999;28;20023;-66
2021/05/07 06:16:49;;;;;;;1.00;0.30;;;18.10;49.10;;;;;;4992914;28;20022;-66
2021/05/07 06:19:15;;;;;;;2.97;0.30;;;18.20;49.00;;;;;;4975532;28;20026;-66
2021/05/07 06:21:41;;;;;;;0.30;0.20;;;18.50;49.00;;;;;;4991760;28;20539;-66
2021/05/07 06:24:07;;;;;;;1.05;0.40;;;18.30;48.70;;;;;;4992855;28;20041;-66
2021/05/07 06:26:32;;;;;;;1.58;0.30;;;18.60;48.80;;;;;;4992880;28;20046;-66
2021/05/07 06:28:58;;;;;;;0.30;0.30;;;18.50;49.00;;;;;;4991624;28;20026;-66
2021/05/07 06:31:23;;;;;;;0.52;0.20;;;18.30;49.50;;;;;;4992759;28;20482;-65
2021/05/07 06:33:49;;;;;;;1.20;0.20;;;17.90;49.70;;;;;;4991472;28;20030;-65
2021/05/07 06:36:17;;;;;;;1.27;0.20;;;18.50;75.40;;;;;;4992668;28;20014;-66
2021/05/07 06:38:43;;;;;;;1.05;0.20;;;18.10;49.80;;;;;;4991437;28;20022;-65
2021/05/07 06:41:11;;;;;;;0.40;0.20;;;18.10;49.50;;;;;;4992597;28;20093;-66
2021/05/07 06:43:36;;;;;;;1.23;0.38;;;18.50;49.70;;;;;;4992900;28;20027;-65
2021/05/07 06:46:02;;;;;;;1.75;0.20;;;18.50;49.70;;;;;;4992847;28;20037;-65
2021/05/07 06:48:28;;;;;;;3.25;0.20;;;18.50;49.60;;;;;;4992794;28;20117;-66
2021/05/07 06:50:53;;;;;;;0.35;0.20;;;18.50;49.40;;;;;;4992466;28;20424;-65
2021/05/07 06:53:20;;;;;;;1.30;0.60;;;18.50;49.50;;;;;;4992421;28;20061;-65
2021/05/07 06:55:45;;;;;;;0.40;0.20;;;18.60;49.60;;;;;;4991245;28;20026;-65
2021/05/07 06:58:11;;;;;;;0.70;0.40;;;19.40;49.60;;;;;;4994670;28;20026;-66
2021/05/07 07:00:37;;;;;;;2.42;0.30;;;18.80;49.10;;;;;;4995950;28;20050;-65
2021/05/07 07:03:03;;;;;;;0.20;0.20;;;18.80;49.20;;;;;;4995790;28;20646;-66
2021/05/07 07:05:29;;;;;;;0.43;0.25;;;19.10;49.50;;;;;;4978361;28;20061;-65
2021/05/07 07:07:54;;;;;;;1.60;0.20;;;18.90;49.30;;;;;;4996062;28;20118;-66
2021/05/07 07:10:21;;;;;;;0.73;0.40;;;19.00;49.30;;;;;;4995710;28;20480;-66
2021/05/07 07:12:46;;;;;;;0.55;0.20;;;18.90;49.40;;;;;;4995690;28;20031;-65
2021/05/07 07:15:12;;;;;;;0.40;0.20;;;19.00;49.60;;;;;;4995703;28;20027;-65
2021/05/07 07:17:38;;;;;;;1.15;0.20;;;19.20;49.70;;;;;;4995709;28;20073;-66
2021/05/07 07:20:04;;;;;;;0.30;0.20;;;19.00;49.60;;;;;;4995733;28;20031;-66
2021/05/07 07:22:30;;;;;;;0.20;0.20;;;19.30;49.80;;;;;;4995668;28;20387;-66
2021/05/07 07:24:55;;;;;;;0.30;0.20;;;19.30;50.00;;;;;;4995587;28;20022;-66
2021/05/07 07:27:21;;;;;;;1.05;0.30;;;19.40;50.20;;;;;;4995534;28;20038;-66
2021/05/07 07:29:47;;;;;;;0.68;0.40;;;19.10;49.90;;;;;;4995448;28;20026;-65
2021/05/07 07:32:13;;;;;;;0.50;0.20;;;19.10;49.80;;;;;;4995373;28;20511;-65
2021/05/07 07:34:40;;;;;;;1.10;0.20;;;19.10;50.00;;;;;;4995386;28;20026;-65
2021/05/07 07:37:05;;;;;;;0.52;0.30;;;19.20;50.30;;;;;;4995252;28;20499;-67
2021/05/07 07:39:31;;;;;;;3.03;0.47;;;19.20;50.50;;;;;;4995344;28;20046;-66
2021/05/07 07:41:56;;;;;;;0.63;0.30;;;19.00;75.30;;;;;;4995170;28;20516;-66
2021/05/07 07:44:22;;;;;;;1.67;0.57;;;18.90;50.70;;;;;;4993947;28;20537;-66
2021/05/07 07:46:48;;;;;;;4.25;0.30;;;19.20;51.60;;;;;;4995147;28;20077;-65
2021/05/07 07:49:14;;;;;;;1.15;0.43;;;19.10;51.10;;;;;;4995171;28;20018;-67
2021/05/07 07:51:39;;;;;;;1.02;0.22;;;18.90;51.00;;;;;;4994974;28;20042;-65
2021/05/07 07:54:07;;;;;;;1.27;0.30;;;18.80;51.00;;;;;;4994922;28;20066;-66
2021/05/07 07:56:34;;;;;;;0.22;0.20;;;19.00;51.20;;;;;;4994864;28;20503;-66
2021/05/07 07:59:00;;;;;;;1.17;0.40;;;19.30;51.40;;;;;;4994708;28;20427;-65
2021/05/07 08:01:25;;;;;;;0.40;0.30;;;18.70;51.30;;;;;;4994834;28;20018;-65
2021/05/07 08:03:51;;;;;;;0.85;0.25;;;18.70;51.10;;;;;;4994617;28;20057;-65
2021/05/07 08:06:17;;;;;;;1.88;0.47;;;18.60;51.30;;;;;;4995009;28;20045;-66
2021/05/07 08:08:42;;;;;;;0.93;0.20;;;18.50;51.40;;;;;;4994597;28;20117;-65
2021/05/07 08:11:08;;;;;;;1.45;0.45;;;18.60;51.40;;;;;;4994546;28;20023;-65
2021/05/07 08:13:34;;;;;;;1.42;0.30;;;18.50;51.40;;;;;;4994656;28;20134;-66
2021/05/07 08:15:59;;;;;;;0.25;0.20;;;18.80;51.50;;;;;;4994845;28;20026;-66
2021/05/07 08:18:25;;;;;;;0.93;0.40;;;18.50;51.20;;;;;;4994655;28;20076;-65
2021/05/07 08:20:50;;;;;;;1.02;0.22;;;18.90;51.60;;;;;;4994359;28;20026;-66
2021/05/07 08:23:16;;;;;;;0.85;0.20;;;18.70;51.80;;;;;;4994471;28;20033;-66
2021/05/07 08:25:42;;;;;;;0.60;0.20;;;18.50;51.80;;;;;;4994278;28;20022;-66
2021/05/07 08:28:07;;;;;;;1.13;0.20;;;18.50;51.80;;;;;;4994588;28;20065;-66
2021/05/07 08:30:33;;;;;;;0.52;0.20;;;18.70;52.00;;;;;;4992998;28;20030;-66
2021/05/07 08:32:59;;;;;;;1.77;0.25;;;18.70;51.90;;;;;;4994157;28;20034;-65
2021/05/07 08:35:25;;;;;;;0.70;0.30;;;18.80;76.70;;;;;;4992941;28;20573;-67
2021/05/07 08:37:52;;;;;;;0.32;0.30;;;19.10;51.90;;;;;;4994314;28;20515;-65
2021/05/07 08:40:18;;;;;;;1.60;0.50;;;18.70;51.70;;;;;;4994346;28;20057;-65
2021/05/07 08:42:44;;;;;;;0.30;0.20;;;18.50;51.80;;;;;;4994334;28;20050;-66
2021/05/07 08:45:11;;;;;;;0.40;0.30;;;18.70;51.90;;;;;;4993927;28;20101;-65
2021/05/07 08:47:37;;;;;;;0.40;0.30;;;18.60;51.90;;;;;;4994245;28;20387;-65
2021/05/07 08:50:07;;;;;;;0.30;0.20;;;18.40;51.90;;;;;;4994152;28;20021;-66
2021/05/07 08:52:34;;;;;;;;;;;18.50;52.00;;;;;;4994236;28;20038;-66
2021/05/07 08:55:00;;;;;;;1.30;0.43;;;18.30;52.00;;;;;;4993894;28;20024;-65
2021/05/07 08:57:26;;;;;;;0.20;0.20;;;18.50;52.70;;;;;;4993792;28;20527;-64
2021/05/07 08:59:52;;;;;;;1.05;0.30;;;18.50;52.00;;;;;;4993744;28;20053;-65
2021/05/07 09:02:31;;;;;;;0.32;0.20;;;18.40;52.10;;;;;;4976244;28;20439;-64
2021/05/07 09:04:58;;;;;;;0.55;0.38;;;18.20;52.20;;;;;;4976108;28;20422;-65
2021/05/07 09:07:25;;;;;;;0.93;0.47;;;18.20;52.20;;;;;;4993500;28;20051;-66
2021/05/07 09:09:55;;;;;;;0.50;0.30;;;18.50;52.50;;;;;;4993579;28;20029;-65
2021/05/07 09:12:26;;;;;;;0.20;0.20;;;18.30;52.30;;;;;;4993245;28;20559;-66
2021/05/07 09:14:52;;;;;;;0.35;0.30;;;18.40;52.30;;;;;;4993519;28;20027;-66
2021/05/07 09:17:20;;;;;;;0.28;0.20;;;18.30;52.20;;;;;;4993443;28;20037;-66
2021/05/07 09:19:46;;;;;;;1.25;0.30;;;18.60;52.20;;;;;;4992925;28;20487;-66
2021/05/07 09:22:24;;;;;;;0.93;0.20;;;18.40;51.90;;;;;;4992253;28;20037;-66
2021/05/07 09:24:50;;;;;;;0.43;0.30;;;19.30;52.50;;;;;;4993491;28;20026;-66
2021/05/07 09:27:22;;;;;;;0.88;0.30;;;18.60;52.60;;;;;;4993238;28;20026;-66
2021/05/07 09:29:48;;;;;;;0.88;0.30;;;18.40;51.50;;;;;;4993305;28;20026;-66
2021/05/07 09:32:14;;;;;;;0.30;0.30;;;18.50;51.70;;;;;;4993239;28;20045;-66
2021/05/07 09:34:39;;;;;;;0.65;0.40;;;18.70;51.90;;;;;;4993383;28;20061;-66
2021/05/07 09:37:22;;;;;;;0.52;0.40;;;18.70;52.00;;;;;;4992919;28;20022;-66
2021/05/07 09:39:50;;;;;;;0.30;0.30;;;18.30;51.80;;;;;;4993430;28;20076;-66
2021/05/07 09:42:24;;;;;;;0.75;0.20;;;18.30;51.60;;;;;;4992846;28;20498;-66
2021/05/07 09:44:50;;;;;;;1.08;0.30;;;18.50;52.20;;;;;;4992977;28;20018;-65
2021/05/07 09:47:15;;;;;;;0.95;0.30;;;18.50;52.30;;;;;;4993197;28;20022;-65
2021/05/07 09:49:41;;;;;;;0.88;0.30;;;18.60;52.20;;;;;;4993294;28;20033;-66
2021/05/07 09:52:07;;;;;;;1.65;0.45;;;18.70;51.90;;;;;;4991875;28;20057;-66
2021/05/07 09:54:33;;;;;;;0.30;0.30;;;18.70;51.70;;;;;;4975458;28;20041;-66
2021/05/07 09:57:00;;;;;;;2.08;0.20;;;18.70;51.80;;;;;;4992954;28;20479;-66
2021/05/07 09:59:28;;;;;;;1.27;0.30;;;18.30;51.70;;;;;;4975608;28;20110;-66
2021/05/07 10:01:54;;;;;;;0.20;0.20;;;18.60;52.00;;;;;;4975449;28;20030;-66
2021/05/07 10:04:19;;;;;;;0.85;0.30;;;18.70;52.20;;;;;;4992738;28;20384;-65
2021/05/07 10:06:45;;;;;;;0.20;0.20;;;18.40;52.10;;;;;;4992954;28;20041;-65
2021/05/07 10:09:20;;;;;;;1.23;0.20;;;18.50;52.10;;;;;;4993271;28;20093;-66
2021/05/07 10:11:46;;;;;;;1.17;0.32;;;18.60;52.00;;;;;;4993057;28;20022;-66
2021/05/07 10:14:13;;;;;;;0.40;0.40;;;18.50;52.00;;;;;;4992674;28;20388;-66
2021/05/07 10:16:39;;;;;;;0.93;0.30;;;18.50;52.20;;;;;;4992476;28;20023;-66
2021/05/07 10:19:11;;;;;;;0.30;0.20;;;18.30;52.00;;;;;;4992687;28;20084;-66
2021/05/07 10:21:44;;;;;;;0.17;0.17;;;18.50;52.30;;;;;;4992817;28;20645;-65
2021/05/07 10:24:12;;;;;;;1.25;0.47;;;18.50;52.20;;;;;;4992765;28;20030;-66
2021/05/07 10:26:42;;;;;;;4.50;0.43;;;18.30;52.00;;;;;;4993027;28;20404;-66
2021/05/07 10:29:25;;;;;;;0.50;0.30;;;18.30;51.90;;;;;;4992761;28;20082;-66
2021/05/07 10:31:52;;;;;;;1.05;0.30;;;18.50;52.10;;;;;;4994399;28;20037;-65
2021/05/07 10:34:20;;;;;;;0.20;0.20;;;19.00;52.10;;;;;;4996602;28;20106;-66
2021/05/07 10:36:48;;;;;;;1.50;0.40;;;18.20;51.80;;;;;;4996366;28;20387;-61
2021/05/07 10:39:27;;;;;;;0.52;0.30;;;18.20;51.70;;;;;;4996496;28;20025;-65
2021/05/07 10:41:54;;;;;;;0.40;0.20;;;18.40;51.80;;;;;;4996635;28;20037;-65
2021/05/07 10:44:22;;;;;;;0.57;0.25;;;18.10;51.70;;;;;;4996179;28;20022;-66
2021/05/07 10:46:59;;;;;;;1.20;0.45;;;18.30;51.40;;;;;;4996230;28;20069;-65
2021/05/07 10:49:35;;;;;;;0.68;0.30;;;18.50;51.50;;;;;;4996338;28;20042;-66
2021/05/07 10:52:00;;;;;;;1.40;0.20;;;18.70;51.50;;;;;;4995936;28;20038;-66
2021/05/07 10:55:16;;;;;;;6.75;0.52;;;18.60;51.50;;;;;;4996184;28;20033;-65
2021/05/07 10:57:38;;;;;;;0.75;0.40;;;18.60;51.40;;;;;;4992105;28;20073;-65
2021/05/07 11:00:07;;;;;;;0.30;0.20;;;18.80;77.20;;;;;;4996081;28;20479;-66
2021/05/07 11:02:47;;;;;;;0.20;0.20;;;18.70;51.20;;;;;;4995888;28;20026;-67
2021/05/07 11:05:33;;;;;;;0.67;0.23;;;18.50;51.40;;;;;;4995805;28;20777;-66
2021/05/07 11:07:59;;;;;;;0.50;0.28;;;18.80;51.30;;;;;;4995808;28;20356;-64
2021/05/07 11:10:28;;;;;;;0.40;0.20;;;18.90;51.10;;;;;;4995863;28;20433;-65
2021/05/07 11:12:54;;;;;;;0.55;0.20;;;18.70;50.70;;;;;;4996058;28;20062;-66
2021/05/07 11:15:20;;;;;;;0.32;0.20;;;18.80;50.70;;;;;;4978155;28;20022;-65
2021/05/07 11:17:56;;;;;;;0.20;0.20;;;18.90;50.80;;;;;;4978316;28;20117;-65
2021/05/07 11:20:29;;;;;;;0.30;0.22;;;19.00;51.00;;;;;;4995830;28;20485;-66
2021/05/07 11:22:57;;;;;;;1.10;0.30;;;19.20;51.00;;;;;;4995471;28;20030;-65
2021/05/07 11:25:23;;;;;;;3.92;0.40;;;18.80;50.60;;;;;;4978048;28;20018;-66
2021/05/07 11:27:48;;;;;;;2.05;0.30;;;18.70;50.70;;;;;;4995470;28;20026;-66
2021/05/07 11:30:15;;;;;;;1.38;0.38;;;18.90;50.80;;;;;;4994215;28;20030;-66
2021/05/07 11:32:40;;;;;;;0.80;0.22;;;18.90;50.90;;;;;;4994017;28;20117;-66
2021/05/07 11:35:11;;;;;;;6.35;0.40;;;18.90;75.60;;;;;;4995451;28;20069;-64
2021/05/07 11:37:41;;;;;;;0.70;0.30;;;18.90;51.10;;;;;;4995632;28;20285;-64
2021/05/07 11:40:15;;;;;;;0.30;0.30;;;18.80;51.20;;;;;;4995258;28;20026;-64
2021/05/07 11:42:48;;;;;;;3.40;0.30;;;18.60;51.00;;;;;;4994640;28;20033;-66
2021/05/07 11:45:19;;;;;;;0.25;0.25;;;18.80;51.30;;;;;;4995303;28;20442;-66
2021/05/07 11:47:46;;;;;;;0.52;0.30;;;18.80;51.20;;;;;;4977586;28;20391;-65
2021/05/07 11:50:17;;;;;;;1.20;0.30;;;18.50;51.10;;;;;;4977659;28;20033;-65
2021/05/07 11:52:45;;;;;;;2.25;0.20;;;18.50;51.10;;;;;;4994950;28;20037;-65
2021/05/07 11:55:23;;;;;;;0.70;0.30;;;18.60;51.00;;;;;;4995019;28;20057;-64
2021/05/07 11:58:08;;;;;;;0.45;0.20;;;18.70;51.60;;;;;;4995151;28;20031;-65
2021/05/07 12:00:36;;;;;;;0.73;0.35;;;18.50;51.50;;;;;;4994875;28;20109;-65
2021/05/07 12:03:06;;;;;;;1.77;0.38;;;18.40;51.30;;;;;;4994703;28;20022;-65
2021/05/07 12:05:36;;;;;;;0.30;0.30;;;18.60;51.40;;;;;;4994827;28;20066;-65
2021/05/07 12:08:03;;;;;;;0.65;0.20;;;18.20;51.30;;;;;;4995010;28;20069;-65
2021/05/07 12:10:30;;;;;;;2.33;0.45;;;18.60;51.50;;;;;;4994622;28;20022;-65
2021/05/07 12:13:00;;;;;;;1.52;0.40;;;18.30;51.40;;;;;;4994432;28;20423;-65
2021/05/07 12:15:30;;;;;;;4.20;0.40;;;18.40;51.40;;;;;;4994798;28;20022;-65
2021/05/07 12:17:56;;;;;;;2.20;0.30;;;18.70;51.30;;;;;;4994567;28;20368;-65
2021/05/07 12:20:24;;;;;;;0.47;0.40;;;18.40;51.50;;;;;;4994335;28;20145;-65
2021/05/07 12:22:53;;;;;;;1.70;0.38;;;18.40;51.20;;;;;;4994439;28;20031;-65
2021/05/07 12:25:23;;;;;;;0.73;0.45;;;18.70;51.60;;;;;;4994386;28;20022;-65
2021/05/07 12:27:50;;;;;;;0.70;0.32;;;18.80;51.60;;;;;;4994346;28;20030;-65
2021/05/07 12:30:30;;;;;;;1.45;0.30;;;18.70;52.10;;;;;;4994199;28;20033;-65
2021/05/07 12:32:58;;;;;;;;;;;18.70;51.40;;;;;;4994662;28;20042;-65
2021/05/07 12:35:44;;;;;;;0.85;0.30;;;18.80;51.20;;;;;;4994144;28;19905;-65
2021/05/07 12:38:23;;;;;;;0.60;0.30;;;18.80;51.30;;;;;;4994236;28;20586;-65
2021/05/07 12:41:20;;;;;;;0.93;0.30;;;18.80;51.20;;;;;;4976792;28;20034;-65
2021/05/07 12:43:51;;;;;;;0.47;0.40;;;18.70;51.10;;;;;;4965004;28;20038;-64
2021/05/07 12:46:18;;;;;;;0.47;0.40;;;18.90;51.30;;;;;;4994418;28;20033;-64
2021/05/07 12:48:48;;;;;;;0.55;0.40;;;18.50;51.00;;;;;;4976500;28;20383;-66
2021/05/07 12:51:15;;;;;;;0.95;0.30;;;18.60;50.90;;;;;;4993969;28;20022;-65
2021/05/07 12:53:44;;;;;;;0.63;0.30;;;18.50;50.80;;;;;;4993935;28;20030;-65